Time;durP1;ratioP1;P1;durP2;ratioP2;P2;SDS_P1;SDS_P2;PMS_P1;PMS_P2;Temp;Humidity;BMP_temperature;BMP_pressure;BME280_temperature;BME280_humidity;BME280_pressure;Samples;Min_cycle;Max_cycle;Signal;HPM_P1;HPM_P2
2023/04/07 00:02:11;;;;;;;7.17;3.30;;;5.30;99.90;;;;;;5082782;28;20262;-75
2023/04/07 00:04:36;;;;;;;6.90;3.73;;;5.30;99.90;;;;;;5067082;28;20181;-75
2023/04/07 00:07:02;;;;;;;7.93;4.60;;;5.30;99.90;;;;;;5067236;28;20173;-77
2023/04/07 00:09:28;;;;;;;9.07;4.10;;;5.30;99.90;;;;;;5066678;28;20664;-76
2023/04/07 00:11:53;;;;;;;10.90;5.80;;;5.30;99.90;;;;;;5068139;28;20203;-75
2023/04/07 00:14:19;;;;;;;8.43;4.00;;;5.30;99.90;;;;;;5064912;28;20338;-75
2023/04/07 00:16:45;;;;;;;7.53;4.00;;;5.30;99.90;;;;;;5068626;28;20577;-75
2023/04/07 00:19:10;;;;;;;8.30;4.60;;;5.30;99.90;;;;;;5068736;28;20189;-75
2023/04/07 00:21:36;;;;;;;12.43;4.37;;;5.20;99.90;;;;;;5066154;28;22376;-75
2023/04/07 00:24:01;;;;;;;6.77;4.13;;;5.30;99.90;;;;;;5066727;28;20615;-75
2023/04/07 00:26:30;;;;;;;7.00;3.20;;;5.30;99.90;;;;;;5084688;28;20564;-77
2023/04/07 00:28:56;;;;;;;6.33;3.90;;;5.30;99.90;;;;;;5083032;28;20180;-74
2023/04/07 00:31:22;;;;;;;8.93;4.40;;;5.30;99.90;;;;;;5082804;28;21001;-74
2023/04/07 00:33:48;;;;;;;10.50;4.00;;;5.20;99.90;;;;;;5064019;28;20428;-76
2023/04/07 00:36:14;;;;;;;13.77;4.53;;;5.30;99.90;;;;;;5068606;28;20181;-77
2023/04/07 00:38:40;;;;;;;7.20;3.70;;;5.20;99.90;;;;;;5070149;28;20182;-77
2023/04/07 00:41:05;;;;;;;11.07;4.60;;;5.20;99.90;;;;;;5068692;28;21009;-76
2023/04/07 00:43:31;;;;;;;10.00;4.20;;;5.20;99.90;;;;;;5066203;28;20220;-74
2023/04/07 00:45:57;;;;;;;5.63;3.40;;;5.20;99.90;;;;;;5072175;28;20173;-75
2023/04/07 00:48:23;;;;;;;7.73;4.33;;;5.30;99.90;;;;;;5071809;28;20177;-74
2023/04/07 00:50:49;;;;;;;8.27;4.33;;;5.20;99.90;;;;;;5072235;28;20593;-74
2023/04/07 00:53:15;;;;;;;12.27;5.50;;;5.40;99.90;;;;;;5086579;28;20440;-75
2023/04/07 00:55:41;;;;;;;8.83;3.57;;;5.30;99.90;;;;;;5071095;28;20177;-76
2023/04/07 00:58:06;;;;;;;7.70;4.00;;;5.20;99.90;;;;;;5071610;28;20431;-76
2023/04/07 01:00:36;;;;;;;7.33;3.60;;;5.30;99.90;;;;;;5071955;28;20177;-75
2023/04/07 01:03:10;;;;;;;15.63;4.80;;;5.30;99.90;;;;;;5086604;28;20299;-74
2023/04/07 01:05:54;;;;;;;11.13;4.70;;;5.30;99.90;;;;;;5087668;28;20443;-74
2023/04/07 01:08:27;;;;;;;6.93;3.63;;;5.30;99.90;;;;;;5070587;28;20915;-74
2023/04/07 01:11:04;;;;;;;7.70;3.90;;;5.30;99.90;;;;;;5087858;28;20435;-74
2023/04/07 01:13:32;;;;;;;9.90;3.83;;;5.30;99.90;;;;;;5070140;28;20438;-74
2023/04/07 01:16:02;;;;;;;9.77;4.03;;;5.30;99.90;;;;;;5070788;28;20423;-74
2023/04/07 01:18:32;;;;;;;11.60;4.27;;;5.40;99.90;;;;;;5069669;28;20415;-77
2023/04/07 01:21:18;;;;;;;16.40;4.43;;;5.30;99.90;;;;;;5072946;28;20790;-77
2023/04/07 01:23:44;;;;;;;7.87;4.57;;;5.30;99.90;;;;;;5074411;28;20451;-78
2023/04/07 01:26:23;;;;;;;6.40;3.87;;;5.30;99.90;;;;;;5097158;28;20430;-75
2023/04/07 01:28:55;;;;;;;14.67;3.67;;;5.30;99.90;;;;;;5089946;28;20499;-81
2023/04/07 01:31:25;;;;;;;10.43;5.50;;;5.30;99.90;;;;;;5096055;28;20502;-80
2023/04/07 01:33:52;;;;;;;10.13;4.83;;;5.30;99.90;;;;;;5095560;28;20415;-81
2023/04/07 01:36:20;;;;;;;5.77;3.50;;;5.40;99.90;;;;;;5096571;28;20419;-81
2023/04/07 01:38:48;;;;;;;10.80;4.70;;;5.40;99.90;;;;;;5112866;28;20450;-81
2023/04/07 01:41:15;;;;;;;7.07;3.90;;;5.40;99.90;;;;;;5094633;28;20766;-81
2023/04/07 01:43:41;;;;;;;10.40;4.80;;;5.40;99.90;;;;;;5093824;28;20451;-81
2023/04/07 01:46:08;;;;;;;4.00;3.07;;;5.30;99.90;;;;;;5096348;28;20435;-81
2023/04/07 01:48:35;;;;;;;10.50;4.50;;;5.40;99.90;;;;;;5092157;28;20443;-75
2023/04/07 01:51:03;;;;;;;7.80;4.50;;;5.30;99.90;;;;;;5087390;28;20438;-79
2023/04/07 01:53:29;;;;;;;5.43;3.23;;;5.30;99.90;;;;;;5067661;28;20810;-76
2023/04/07 01:55:55;;;;;;;7.93;3.40;;;5.40;99.90;;;;;;5070071;28;20426;-76
2023/04/07 01:58:20;;;;;;;9.43;4.33;;;5.40;99.90;;;;;;5070569;28;20428;-73
2023/04/07 02:00:47;;;;;;;9.13;4.57;;;5.40;99.90;;;;;;5070502;28;20281;-73
2023/04/07 02:03:19;;;;;;;5.80;3.70;;;5.40;99.90;;;;;;5069287;28;20249;-75
2023/04/07 02:05:48;;;;;;;7.50;4.10;;;5.40;99.90;;;;;;5069903;28;20438;-76
2023/04/07 02:08:16;;;;;;;10.13;4.90;;;5.40;99.90;;;;;;5067694;28;20419;-76
2023/04/07 02:10:45;;;;;;;10.60;4.83;;;5.40;99.90;;;;;;5069538;28;20430;-78
2023/04/07 02:13:14;;;;;;;11.13;4.40;;;5.40;99.90;;;;;;5068102;28;20641;-76
2023/04/07 02:15:43;;;;;;;11.13;4.90;;;5.40;99.90;;;;;;5068838;28;20424;-78
2023/04/07 02:18:09;;;;;;;13.40;3.70;;;5.40;99.90;;;;;;5067877;28;20427;-77
2023/04/07 02:20:36;;;;;;;9.60;4.07;;;5.40;99.90;;;;;;5067324;28;20530;-75
2023/04/07 02:23:02;;;;;;;7.63;4.20;;;5.50;99.90;;;;;;5068965;28;20510;-77
2023/04/07 02:25:30;;;;;;;9.40;4.70;;;5.50;99.90;;;;;;5067273;28;20422;-76
2023/04/07 02:27:57;;;;;;;6.03;3.97;;;5.50;99.90;;;;;;5069015;28;20436;-76
2023/04/07 02:30:23;;;;;;;8.40;4.07;;;5.50;99.90;;;;;;5068364;28;20416;-77
2023/04/07 02:32:49;;;;;;;8.90;4.50;;;5.50;99.90;;;;;;5083868;28;20462;-78
2023/04/07 02:35:15;;;;;;;10.67;4.90;;;5.50;99.90;;;;;;5066887;28;20439;-76
2023/04/07 02:37:42;;;;;;;10.10;4.97;;;5.50;99.90;;;;;;5069732;28;20181;-79
2023/04/07 02:40:08;;;;;;;8.17;4.70;;;5.50;99.90;;;;;;5067001;28;20513;-75
2023/04/07 02:42:35;;;;;;;8.27;4.00;;;5.50;99.90;;;;;;5084350;28;20463;-76
2023/04/07 02:45:04;;;;;;;7.50;4.80;;;5.50;99.90;;;;;;5067907;28;20416;-75
2023/04/07 02:47:30;;;;;;;9.23;3.27;;;5.40;99.90;;;;;;5067509;28;20469;-76
2023/04/07 02:49:56;;;;;;;8.20;4.10;;;5.40;99.90;;;;;;5069100;28;20763;-75
2023/04/07 02:52:21;;;;;;;6.47;3.70;;;5.40;99.90;;;;;;5084477;28;21412;-76
2023/04/07 02:54:47;;;;;;;9.60;4.63;;;5.50;99.90;;;;;;5068492;28;20185;-76
2023/04/07 02:57:13;;;;;;;8.40;4.20;;;5.40;99.90;;;;;;5068365;28;20226;-75
2023/04/07 02:59:39;;;;;;;9.20;4.70;;;5.40;99.90;;;;;;5084093;28;20246;-75
2023/04/07 03:02:04;;;;;;;9.13;4.63;;;5.40;99.90;;;;;;5067875;28;20231;-76
2023/04/07 03:04:30;;;;;;;6.17;3.20;;;5.40;99.90;;;;;;5068473;28;20424;-77
2023/04/07 03:06:56;;;;;;;9.10;4.67;;;5.50;99.90;;;;;;5066744;28;20184;-78
2023/04/07 03:09:22;;;;;;;9.20;4.77;;;5.50;99.90;;;;;;5065576;28;20479;-76
2023/04/07 03:11:48;;;;;;;12.10;5.00;;;5.50;99.90;;;;;;5067654;28;20695;-76
2023/04/07 03:14:15;;;;;;;20.53;4.77;;;5.50;99.90;;;;;;5070041;28;20427;-76
2023/04/07 03:16:41;;;;;;;8.93;5.47;;;5.40;99.90;;;;;;5073366;28;20317;-76
2023/04/07 03:19:07;;;;;;;8.70;4.20;;;5.40;99.90;;;;;;5069066;28;20417;-76
2023/04/07 03:21:33;;;;;;;9.07;4.33;;;5.40;99.90;;;;;;5066374;28;20442;-76
2023/04/07 03:23:59;;;;;;;9.90;4.73;;;5.40;99.90;;;;;;5082187;28;20455;-76
2023/04/07 03:26:24;;;;;;;10.30;5.50;;;5.50;99.90;;;;;;5068756;28;20659;-75
2023/04/07 03:28:50;;;;;;;8.73;4.37;;;5.50;99.90;;;;;;5066466;28;20185;-76
2023/04/07 03:31:15;;;;;;;8.97;4.30;;;5.40;99.90;;;;;;5067327;28;20661;-76
2023/04/07 03:33:41;;;;;;;9.70;4.90;;;5.50;99.90;;;;;;5082279;28;20276;-76
2023/04/07 03:36:07;;;;;;;9.67;4.70;;;5.40;99.90;;;;;;5066372;28;20660;-76
2023/04/07 03:38:32;;;;;;;9.63;4.30;;;5.40;99.90;;;;;;5082479;28;20209;-76
2023/04/07 03:40:58;;;;;;;8.73;4.70;;;5.50;99.90;;;;;;5066851;28;20609;-76
2023/04/07 03:43:24;;;;;;;7.53;4.00;;;5.30;99.90;;;;;;5066841;28;20984;-76
2023/04/07 03:45:52;;;;;;;5.87;3.53;;;5.40;99.90;;;;;;5068180;28;20374;-76
2023/04/07 03:48:17;;;;;;;11.20;5.50;;;5.50;99.90;;;;;;5066496;28;20330;-77
2023/04/07 03:50:44;;;;;;;13.73;5.40;;;5.40;99.90;;;;;;5067123;28;20447;-78
2023/04/07 03:53:10;;;;;;;11.80;5.03;;;5.40;99.90;;;;;;5066917;28;20339;-76
2023/04/07 03:55:36;;;;;;;8.90;5.00;;;5.50;99.90;;;;;;5065900;28;20431;-76
2023/04/07 03:58:01;;;;;;;10.20;4.73;;;5.50;99.90;;;;;;5067589;28;20188;-76
2023/04/07 04:00:27;;;;;;;12.43;5.40;;;5.50;99.90;;;;;;5066227;28;20672;-76
2023/04/07 04:02:53;;;;;;;12.03;5.13;;;5.40;99.90;;;;;;5066478;28;20219;-78
2023/04/07 04:05:18;;;;;;;7.27;3.80;;;5.40;99.90;;;;;;5068441;28;20181;-76
2023/04/07 04:07:44;;;;;;;9.03;5.03;;;5.40;99.90;;;;;;5067603;28;20181;-76
2023/04/07 04:10:10;;;;;;;6.73;3.73;;;5.40;99.90;;;;;;5065747;28;20696;-74
2023/04/07 04:12:36;;;;;;;15.27;5.57;;;5.40;99.90;;;;;;5066006;28;20532;-77
2023/04/07 04:15:01;;;;;;;9.57;4.00;;;5.40;99.90;;;;;;5067423;28;20230;-79
2023/04/07 04:17:27;;;;;;;8.93;4.17;;;5.40;99.90;;;;;;5067210;28;20257;-75
2023/04/07 04:19:54;;;;;;;14.20;4.90;;;5.40;99.90;;;;;;5071520;28;20181;-76
2023/04/07 04:22:19;;;;;;;15.30;5.00;;;5.40;99.90;;;;;;5069984;28;20280;-74
2023/04/07 04:24:45;;;;;;;13.50;4.57;;;5.40;99.90;;;;;;5086921;28;20919;-75
2023/04/07 04:27:10;;;;;;;9.03;4.50;;;5.40;99.90;;;;;;5070870;28;20268;-75
2023/04/07 04:29:36;;;;;;;12.83;5.60;;;5.40;99.90;;;;;;5069892;28;20177;-74
2023/04/07 04:32:02;;;;;;;8.93;3.80;;;5.30;99.90;;;;;;5086725;28;20304;-77
2023/04/07 04:34:28;;;;;;;12.63;5.27;;;5.30;99.90;;;;;;5071497;28;20834;-75
2023/04/07 04:36:53;;;;;;;14.17;5.57;;;5.30;99.90;;;;;;5070418;28;20673;-75
2023/04/07 04:39:19;;;;;;;11.50;5.43;;;5.30;99.90;;;;;;5069947;28;20177;-76
2023/04/07 04:41:45;;;;;;;9.23;4.57;;;5.30;99.90;;;;;;5070888;28;20711;-75
2023/04/07 04:44:11;;;;;;;8.73;4.27;;;5.30;99.90;;;;;;5070761;28;20208;-77
2023/04/07 04:46:36;;;;;;;6.53;4.10;;;5.30;99.90;;;;;;5087626;28;20181;-76
2023/04/07 04:49:02;;;;;;;9.53;4.50;;;5.40;99.90;;;;;;5070914;28;20871;-77
2023/04/07 04:51:28;;;;;;;11.30;4.50;;;5.40;99.90;;;;;;5069066;28;20766;-75
2023/04/07 04:53:53;;;;;;;11.60;4.80;;;5.30;99.90;;;;;;5070398;28;21118;-75
2023/04/07 04:56:20;;;;;;;11.80;4.77;;;5.30;99.90;;;;;;5069343;28;20181;-76
2023/04/07 04:58:46;;;;;;;10.17;5.20;;;5.30;99.90;;;;;;5070395;28;20181;-75
2023/04/07 05:01:12;;;;;;;8.63;4.07;;;5.30;99.90;;;;;;5069384;28;20510;-76
2023/04/07 05:03:37;;;;;;;11.83;5.70;;;5.30;99.90;;;;;;5069725;28;20818;-76
2023/04/07 05:06:03;;;;;;;11.87;6.40;;;5.30;99.90;;;;;;5070723;28;20534;-76
2023/04/07 05:08:29;;;;;;;11.87;5.83;;;5.30;99.90;;;;;;5070097;28;20187;-78
2023/04/07 05:10:55;;;;;;;9.47;5.17;;;5.30;99.90;;;;;;5069151;28;20280;-76
2023/04/07 05:13:20;;;;;;;9.03;4.37;;;5.40;99.90;;;;;;5069255;28;20205;-75
2023/04/07 05:15:46;;;;;;;10.17;5.30;;;5.30;99.90;;;;;;5070871;28;20179;-76
2023/04/07 05:18:12;;;;;;;15.77;5.73;;;5.30;99.90;;;;;;5069705;28;20173;-78
2023/04/07 05:20:38;;;;;;;9.13;5.43;;;5.30;99.90;;;;;;5085717;28;20189;-75
2023/04/07 05:23:03;;;;;;;9.23;5.40;;;5.40;99.90;;;;;;5068909;28;20616;-76
2023/04/07 05:25:30;;;;;;;10.30;5.70;;;5.30;99.90;;;;;;5069644;28;20169;-75
2023/04/07 05:27:56;;;;;;;11.10;5.07;;;5.30;99.90;;;;;;5086191;28;20188;-76
2023/04/07 05:30:22;;;;;;;8.83;5.27;;;5.30;99.90;;;;;;5066657;28;20905;-76
2023/04/07 05:32:48;;;;;;;18.10;5.10;;;5.40;99.90;;;;;;5069294;28;20474;-75
2023/04/07 05:35:14;;;;;;;9.33;4.03;;;5.40;99.90;;;;;;5070605;28;20223;-75
2023/04/07 05:37:40;;;;;;;14.53;4.73;;;5.40;99.90;;;;;;5071008;28;20579;-74
2023/04/07 05:40:06;;;;;;;17.00;6.73;;;5.40;99.90;;;;;;5069237;28;20437;-74
2023/04/07 05:42:32;;;;;;;16.70;6.63;;;5.40;99.90;;;;;;5068531;28;20554;-74
2023/04/07 05:44:58;;;;;;;9.33;5.73;;;5.40;99.90;;;;;;5066972;28;20514;-75
2023/04/07 05:47:23;;;;;;;12.50;6.30;;;5.50;99.90;;;;;;5070174;28;20204;-76
2023/04/07 05:49:49;;;;;;;9.43;4.70;;;5.60;99.90;;;;;;5069445;28;20186;-74
2023/04/07 05:52:14;;;;;;;10.07;5.30;;;5.50;99.90;;;;;;5069853;28;20694;-75
2023/04/07 05:54:40;;;;;;;9.30;4.40;;;5.60;99.90;;;;;;5070554;28;20181;-75
2023/04/07 05:57:08;;;;;;;12.13;4.67;;;5.60;99.90;;;;;;5070252;28;20593;-78
2023/04/07 05:59:35;;;;;;;11.90;4.80;;;5.60;99.90;;;;;;5087868;28;20671;-77
2023/04/07 06:02:01;;;;;;;14.30;4.87;;;5.70;99.90;;;;;;5072385;28;20439;-74
2023/04/07 06:04:27;;;;;;;9.37;4.80;;;5.70;99.90;;;;;;5078342;28;20459;-74
2023/04/07 06:06:54;;;;;;;6.77;4.20;;;5.80;99.90;;;;;;5099759;28;21635;-81
2023/04/07 06:09:20;;;;;;;12.13;4.70;;;5.80;99.90;;;;;;5094224;28;20211;-80
2023/04/07 06:11:46;;;;;;;9.50;4.97;;;5.90;99.90;;;;;;5093592;28;20484;-80
2023/04/07 06:14:12;;;;;;;9.63;4.50;;;5.80;99.90;;;;;;5093620;28;20587;-76
2023/04/07 06:16:37;;;;;;;8.90;4.30;;;5.90;99.90;;;;;;5089233;28;20211;-82
2023/04/07 06:19:03;;;;;;;9.67;4.70;;;6.00;99.90;;;;;;5071279;28;20186;-76
2023/04/07 06:21:30;;;;;;;9.90;5.70;;;6.00;99.90;;;;;;5067654;28;20650;-77
2023/04/07 06:23:56;;;;;;;10.07;4.50;;;6.00;99.90;;;;;;5066712;28;20224;-75
2023/04/07 06:26:22;;;;;;;11.30;6.17;;;6.00;99.90;;;;;;5066090;28;20428;-75
2023/04/07 06:28:48;;;;;;;11.20;6.93;;;6.00;99.90;;;;;;5065071;28;20193;-75
2023/04/07 06:31:13;;;;;;;8.37;4.80;;;6.00;99.90;;;;;;5083924;28;20451;-76
2023/04/07 06:33:39;;;;;;;8.60;4.50;;;6.10;99.90;;;;;;5067670;28;20633;-75
2023/04/07 06:36:05;;;;;;;8.80;5.30;;;6.20;99.90;;;;;;5068390;28;20704;-75
2023/04/07 06:38:30;;;;;;;9.23;4.20;;;6.20;99.90;;;;;;5064538;28;20186;-74
2023/04/07 06:40:56;;;;;;;9.07;4.23;;;6.20;99.90;;;;;;5068118;28;20188;-77
2023/04/07 06:43:22;;;;;;;9.00;4.17;;;6.30;99.90;;;;;;5065489;28;20348;-78
2023/04/07 06:45:47;;;;;;;8.63;4.53;;;6.30;99.90;;;;;;5066414;28;20193;-74
2023/04/07 06:48:13;;;;;;;8.43;4.70;;;6.40;99.90;;;;;;5083900;28;20181;-74
2023/04/07 06:50:38;;;;;;;12.93;4.97;;;6.50;99.90;;;;;;5068150;28;20188;-75
2023/04/07 06:53:04;;;;;;;14.60;6.33;;;6.50;99.90;;;;;;5083908;28;20204;-76
2023/04/07 06:55:30;;;;;;;7.40;4.13;;;6.60;99.90;;;;;;5068880;28;20193;-78
2023/04/07 06:57:56;;;;;;;12.27;5.10;;;6.50;99.90;;;;;;5068870;28;20480;-75
2023/04/07 07:00:25;;;;;;;9.13;4.17;;;6.60;99.90;;;;;;5067688;28;20187;-75
2023/04/07 07:02:50;;;;;;;9.07;4.97;;;6.70;99.90;;;;;;5066820;28;20315;-75
2023/04/07 07:05:16;;;;;;;7.83;3.80;;;6.80;99.90;;;;;;5068076;28;20502;-75
2023/04/07 07:07:41;;;;;;;7.87;3.73;;;6.90;99.90;;;;;;5068491;28;20185;-75
2023/04/07 07:10:10;;;;;;;7.10;4.30;;;7.00;99.90;;;;;;5067834;28;20188;-75
2023/04/07 07:12:36;;;;;;;8.63;5.17;;;7.10;99.90;;;;;;5067754;28;20206;-75
2023/04/07 07:15:02;;;;;;;7.80;3.97;;;7.10;99.90;;;;;;5086154;28;20483;-75
2023/04/07 07:17:28;;;;;;;9.30;4.17;;;7.10;99.90;;;;;;5071558;28;20193;-75
2023/04/07 07:19:53;;;;;;;9.47;4.30;;;7.10;99.90;;;;;;5070589;28;20433;-76
2023/04/07 07:22:19;;;;;;;21.30;4.30;;;7.10;99.90;;;;;;5070487;28;20205;-75
2023/04/07 07:24:45;;;;;;;11.97;4.40;;;7.10;99.90;;;;;;5073038;28;20210;-74
2023/04/07 07:27:10;;;;;;;9.23;4.60;;;7.30;99.90;;;;;;5075231;28;20192;-76
2023/04/07 07:29:36;;;;;;;7.17;4.17;;;7.60;99.90;;;;;;5077004;28;20177;-78
2023/04/07 07:32:01;;;;;;;9.37;3.87;;;7.70;99.90;;;;;;5089830;28;20228;-81
2023/04/07 07:34:27;;;;;;;8.83;4.13;;;7.70;99.90;;;;;;5094275;28;20211;-81
2023/04/07 07:36:53;;;;;;;6.87;3.17;;;7.80;99.90;;;;;;5094153;28;20208;-82
2023/04/07 07:39:18;;;;;;;9.57;3.40;;;8.00;99.90;;;;;;5091938;28;20203;-81
2023/04/07 07:41:45;;;;;;;7.83;3.90;;;8.10;99.90;;;;;;5093318;28;20189;-79
2023/04/07 07:44:11;;;;;;;7.20;3.90;;;8.30;99.90;;;;;;5088814;28;20217;-75
2023/04/07 07:46:36;;;;;;;7.40;3.43;;;9.60;99.90;;;;;;5068901;28;20450;-77
2023/04/07 07:49:04;;;;;;;5.10;2.73;;;11.10;99.90;;;;;;5066756;28;20235;-76
2023/04/07 07:51:29;;;;;;;10.07;3.20;;;11.90;99.60;;;;;;5068014;28;20268;-76
2023/04/07 07:53:55;;;;;;;4.73;2.73;;;12.90;97.00;;;;;;5069062;28;20534;-76
2023/04/07 07:56:21;;;;;;;6.27;2.77;;;13.70;94.50;;;;;;5072721;28;20223;-76
2023/04/07 07:58:47;;;;;;;7.53;2.80;;;13.80;93.60;;;;;;5072680;28;20428;-76
2023/04/07 08:01:12;;;;;;;6.60;2.90;;;14.60;92.50;;;;;;5088474;28;21070;-76
2023/04/07 08:03:38;;;;;;;7.00;2.50;;;14.40;92.80;;;;;;5069869;28;20204;-77
2023/04/07 08:06:05;;;;;;;3.50;1.87;;;15.30;91.00;;;;;;5089386;28;20177;-77
2023/04/07 08:08:31;;;;;;;4.17;2.13;;;15.10;91.20;;;;;;5088314;28;20230;-76
2023/04/07 08:10:56;;;;;;;8.53;2.30;;;14.80;92.00;;;;;;5072671;28;20915;-76
2023/04/07 08:13:22;;;;;;;2.60;1.83;;;15.40;90.60;;;;;;5071011;28;20201;-74
2023/04/07 08:15:47;;;;;;;4.13;2.60;;;16.20;88.50;;;;;;5073074;28;20238;-78
2023/04/07 08:18:13;;;;;;;5.63;2.90;;;15.90;88.70;;;;;;5072145;28;20221;-76
2023/04/07 08:20:39;;;;;;;3.10;1.60;;;16.10;87.60;;;;;;5071597;28;20238;-76
2023/04/07 08:23:04;;;;;;;3.67;1.97;;;16.30;85.60;;;;;;5071601;28;20707;-79
2023/04/07 08:25:30;;;;;;;2.90;1.47;;;16.10;88.60;;;;;;5087549;28;20181;-75
2023/04/07 08:27:55;;;;;;;6.67;2.80;;;16.00;88.10;;;;;;5073029;28;20189;-75
2023/04/07 08:30:21;;;;;;;3.13;1.63;;;16.20;85.70;;;;;;5070140;28;20254;-75
2023/04/07 08:32:47;;;;;;;4.60;1.93;;;16.20;84.40;;;;;;5071194;28;20309;-76
2023/04/07 08:35:12;;;;;;;4.67;1.60;;;16.40;82.30;;;;;;5071039;28;20208;-77
2023/04/07 08:37:40;;;;;;;3.07;1.20;;;16.40;81.00;;;;;;5072158;28;20239;-76
2023/04/07 08:40:06;;;;;;;3.00;1.40;;;16.50;82.50;;;;;;5071062;28;20177;-76
2023/04/07 08:42:33;;;;;;;4.37;1.63;;;16.40;82.10;;;;;;5070782;28;20537;-75
2023/04/07 08:45:03;;;;;;;2.90;1.67;;;15.20;85.50;;;;;;5071099;28;20431;-75
2023/04/07 08:47:32;;;;;;;4.17;2.13;;;14.30;88.20;;;;;;5071407;28;20502;-75
2023/04/07 08:50:02;;;;;;;4.10;1.67;;;13.70;89.40;;;;;;5069497;28;20441;-75
2023/04/07 08:52:52;;;;;;;4.57;2.10;;;12.70;92.00;;;;;;5070457;28;20890;-75
2023/04/07 08:55:18;;;;;;;5.17;1.90;;;12.00;93.30;;;;;;5068268;28;20455;-75
2023/04/07 08:57:45;;;;;;;8.37;3.03;;;12.10;94.10;;;;;;5070848;28;20423;-75
2023/04/07 09:00:11;;;;;;;2.37;1.53;;;12.40;94.00;;;;;;5088043;28;20431;-79
2023/04/07 09:02:39;;;;;;;9.33;1.90;;;13.30;92.40;;;;;;5084389;28;20672;-75
2023/04/07 09:05:07;;;;;;;4.13;2.50;;;13.30;91.80;;;;;;5070133;28;20423;-75
2023/04/07 09:07:34;;;;;;;4.60;1.87;;;13.30;92.30;;;;;;5068238;28;20803;-75
2023/04/07 09:10:00;;;;;;;6.63;2.10;;;13.80;90.80;;;;;;5071394;28;20424;-76
2023/04/07 09:12:28;;;;;;;14.90;3.53;;;13.50;90.40;;;;;;5067785;28;20861;-77
2023/04/07 09:14:54;;;;;;;6.47;2.10;;;13.00;91.60;;;;;;5069115;28;20434;-75
2023/04/07 09:17:20;;;;;;;5.03;2.10;;;12.70;91.70;;;;;;5069316;28;20436;-76
2023/04/07 09:19:46;;;;;;;2.50;1.30;;;12.20;92.70;;;;;;5069806;28;20423;-77
2023/04/07 09:22:13;;;;;;;2.47;1.53;;;12.00;92.60;;;;;;5069113;28;20447;-78
2023/04/07 09:24:40;;;;;;;6.40;2.00;;;11.70;93.30;;;;;;5068482;28;20463;-78
2023/04/07 09:27:11;;;;;;;4.83;1.97;;;11.50;93.30;;;;;;5067378;28;20419;-77
2023/04/07 09:29:38;;;;;;;2.93;1.40;;;11.40;94.40;;;;;;5068408;28;20420;-78
2023/04/07 09:32:03;;;;;;;2.53;1.50;;;11.50;94.20;;;;;;5068917;28;20502;-76
2023/04/07 09:34:32;;;;;;;3.50;1.47;;;11.50;93.50;;;;;;5070063;28;20443;-77
2023/04/07 09:36:58;;;;;;;11.07;1.67;;;11.40;93.60;;;;;;5085705;28;20812;-76
2023/04/07 09:39:24;;;;;;;2.47;1.33;;;11.80;92.70;;;;;;5085374;28;20454;-77
2023/04/07 09:41:51;;;;;;;2.40;1.30;;;11.70;92.50;;;;;;5069457;28;20475;-76
2023/04/07 09:44:20;;;;;;;4.40;1.97;;;11.80;92.60;;;;;;5085057;28;20804;-76
2023/04/07 09:46:53;;;;;;;2.87;1.30;;;12.10;93.10;;;;;;5068917;28;20408;-77
2023/04/07 09:49:20;;;;;;;16.57;2.00;;;12.60;91.90;;;;;;5083278;28;20447;-76
2023/04/07 09:52:06;;;;;;;13.10;1.90;;;13.00;91.00;;;;;;5083979;28;20892;-75
2023/04/07 09:54:40;;;;;;;3.90;1.30;;;12.90;91.30;;;;;;5068234;28;20427;-79
2023/04/07 09:57:10;;;;;;;3.20;1.23;;;12.70;91.90;;;;;;5067622;28;20430;-77
2023/04/07 09:59:38;;;;;;;3.50;1.63;;;12.70;92.50;;;;;;5070469;28;20420;-76
2023/04/07 10:02:05;;;;;;;3.10;1.67;;;12.80;92.30;;;;;;5069707;28;20450;-76
2023/04/07 10:04:31;;;;;;;4.40;1.93;;;13.30;91.30;;;;;;5069166;28;20467;-76
2023/04/07 10:06:58;;;;;;;2.60;1.60;;;13.50;91.80;;;;;;5068935;28;20411;-77
2023/04/07 10:09:27;;;;;;;3.03;1.60;;;13.20;92.30;;;;;;5067893;28;20424;-78
2023/04/07 10:11:53;;;;;;;3.47;1.47;;;13.40;92.30;;;;;;5070097;28;20496;-77
2023/04/07 10:14:22;;;;;;;2.37;1.43;;;13.50;92.30;;;;;;5084365;28;20415;-76
2023/04/07 10:16:47;;;;;;;8.80;1.50;;;13.70;91.30;;;;;;5070366;28;20706;-76
2023/04/07 10:19:14;;;;;;;3.30;1.53;;;13.70;90.70;;;;;;5070095;28;20434;-77
2023/04/07 10:21:42;;;;;;;6.43;1.47;;;13.60;90.10;;;;;;5069624;28;20205;-76
2023/04/07 10:24:53;;;;;;;3.77;1.33;;;13.30;89.60;;;;;;5068730;28;20528;-75
2023/04/07 10:27:26;;;;;;;4.93;2.20;;;13.00;90.20;;;;;;5062971;28;20740;-76
2023/04/07 10:29:53;;;;;;;3.00;1.17;;;12.70;91.00;;;;;;5077737;28;20440;-75
2023/04/07 10:32:18;;;;;;;2.60;1.53;;;12.50;91.20;;;;;;5067042;28;20828;-76
2023/04/07 10:34:52;;;;;;;2.03;0.97;;;12.20;92.40;;;;;;5066999;28;20447;-76
2023/04/07 10:37:21;;;;;;;3.10;1.20;;;11.90;94.10;;;;;;5082577;28;20185;-75
2023/04/07 10:39:48;;;;;;;2.47;1.30;;;11.70;95.00;;;;;;5067927;28;20976;-77
2023/04/07 10:42:35;;;;;;;3.50;1.70;;;11.40;94.80;;;;;;5065915;28;20467;-75
2023/04/07 10:45:02;;;;;;;4.13;1.13;;;11.20;95.30;;;;;;5067854;28;20445;-76
2023/04/07 10:47:28;;;;;;;3.33;1.50;;;10.90;95.80;;;;;;5069186;28;20438;-76
2023/04/07 10:50:23;;;;;;;2.73;1.77;;;10.90;96.80;;;;;;5068313;28;20522;-78
2023/04/07 10:53:07;;;;;;;3.97;1.30;;;10.70;97.90;;;;;;5046756;28;20451;-76
2023/04/07 10:55:38;;;;;;;3.90;1.70;;;10.60;97.20;;;;;;5068340;28;20459;-77
2023/04/07 10:58:16;;;;;;;9.07;2.77;;;10.30;98.20;;;;;;5062969;28;20753;-76
2023/04/07 11:01:05;;;;;;;9.00;2.33;;;10.10;99.40;;;;;;5067181;28;20435;-76
2023/04/07 11:03:39;;;;;;;2.37;1.00;;;10.10;99.30;;;;;;5064698;28;20467;-78
2023/04/07 11:06:15;;;;;;;2.00;1.20;;;10.00;98.20;;;;;;5065699;28;20443;-76
2023/04/07 11:08:41;;;;;;;2.27;1.03;;;10.00;98.30;;;;;;5064753;28;20441;-76
2023/04/07 11:11:09;;;;;;;1.77;0.80;;;10.10;97.60;;;;;;5063374;28;20444;-78
2023/04/07 11:13:48;;;;;;;3.87;0.80;;;10.00;96.50;;;;;;5059570;28;20451;-76
2023/04/07 11:16:17;;;;;;;1.50;0.80;;;9.90;97.70;;;;;;5066943;28;20431;-77
2023/04/07 11:18:45;;;;;;;1.90;1.37;;;9.80;98.70;;;;;;5081978;28;20474;-77
2023/04/07 11:21:10;;;;;;;3.93;1.13;;;9.80;99.10;;;;;;5063246;28;20443;-75
2023/04/07 11:23:44;;;;;;;2.13;0.83;;;9.80;99.20;;;;;;5065357;28;20484;-78
2023/04/07 11:26:11;;;;;;;1.97;0.90;;;9.70;99.20;;;;;;5066645;28;20188;-78
2023/04/07 11:28:53;;;;;;;1.50;0.70;;;9.70;98.80;;;;;;5063034;28;20441;-72
2023/04/07 11:31:30;;;;;;;5.63;0.93;;;9.80;98.50;;;;;;5061692;28;20822;-76
2023/04/07 11:34:03;;;;;;;3.70;1.30;;;9.90;98.20;;;;;;5064991;28;20435;-76
2023/04/07 11:36:33;;;;;;;2.07;1.13;;;10.00;98.30;;;;;;5065723;28;20489;-78
2023/04/07 11:39:01;;;;;;;6.03;1.97;;;9.90;98.90;;;;;;5077411;28;20812;-75
2023/04/07 11:41:29;;;;;;;3.13;1.47;;;9.70;99.90;;;;;;5063571;28;20423;-79
2023/04/07 11:44:09;;;;;;;2.07;1.07;;;9.40;99.90;;;;;;5065426;28;20471;-77
2023/04/07 11:46:35;;;;;;;4.30;1.37;;;9.20;99.90;;;;;;5066825;28;20494;-79
2023/04/07 11:49:12;;;;;;;3.73;1.30;;;9.00;99.90;;;;;;5066700;28;20954;-79
2023/04/07 11:51:39;;;;;;;3.20;1.07;;;8.80;99.90;;;;;;5064503;28;20954;-76
2023/04/07 11:54:05;;;;;;;4.83;1.47;;;8.60;99.90;;;;;;5068863;28;21048;-77
2023/04/07 11:56:44;;;;;;;4.50;1.97;;;8.40;99.90;;;;;;5065680;28;20859;-80
2023/04/07 11:59:19;;;;;;;7.23;1.70;;;8.40;99.90;;;;;;5061363;28;20177;-78
2023/04/07 12:01:46;;;;;;;4.20;2.00;;;8.20;99.90;;;;;;5067129;28;20545;-77
2023/04/07 12:04:13;;;;;;;5.43;1.70;;;8.20;99.90;;;;;;5064186;28;20483;-76
2023/04/07 12:06:41;;;;;;;6.50;1.33;;;8.30;99.90;;;;;;5063852;28;20807;-77
2023/04/07 12:09:08;;;;;;;1.60;0.77;;;8.30;99.90;;;;;;5066076;28;20415;-78
2023/04/07 12:11:35;;;;;;;2.57;1.30;;;8.30;99.90;;;;;;5064929;28;20990;-79
2023/04/07 12:14:03;;;;;;;5.13;2.03;;;8.40;99.90;;;;;;5061210;28;20431;-77
2023/04/07 12:16:30;;;;;;;3.20;1.27;;;8.30;99.90;;;;;;5056139;28;20451;-76
2023/04/07 12:18:56;;;;;;;3.60;1.77;;;8.50;99.90;;;;;;5066446;28;21257;-77
2023/04/07 12:21:23;;;;;;;6.13;1.20;;;8.70;99.90;;;;;;5067746;28;20428;-75
2023/04/07 12:23:48;;;;;;;2.97;1.23;;;8.70;99.90;;;;;;5065670;28;21008;-78
2023/04/07 12:26:14;;;;;;;1.87;0.90;;;8.90;99.90;;;;;;5069664;28;20432;-72
2023/04/07 12:28:40;;;;;;;2.80;1.17;;;8.90;99.90;;;;;;5064347;28;20205;-75
2023/04/07 12:31:05;;;;;;;2.60;0.77;;;9.00;99.90;;;;;;5065119;28;20734;-78
2023/04/07 12:33:31;;;;;;;1.40;0.70;;;9.00;99.90;;;;;;5064771;28;20200;-78
2023/04/07 12:35:57;;;;;;;2.50;1.27;;;9.10;99.90;;;;;;5065757;28;20200;-77
2023/04/07 12:38:23;;;;;;;1.33;0.70;;;9.20;99.90;;;;;;5069977;28;20528;-79
2023/04/07 12:40:49;;;;;;;1.67;0.73;;;9.20;99.90;;;;;;5071307;28;20431;-76
2023/04/07 12:43:15;;;;;;;2.73;1.00;;;9.20;99.90;;;;;;5072198;28;21025;-76
2023/04/07 12:45:40;;;;;;;3.43;0.90;;;9.30;99.90;;;;;;5089341;28;20184;-77
2023/04/07 12:48:06;;;;;;;2.93;1.13;;;9.40;99.90;;;;;;5091315;28;20205;-76
2023/04/07 12:50:33;;;;;;;8.00;0.80;;;9.40;99.90;;;;;;5072187;28;20174;-77
2023/04/07 12:53:02;;;;;;;3.60;1.60;;;9.40;99.90;;;;;;5070733;28;20216;-76
2023/04/07 12:55:28;;;;;;;4.40;1.10;;;9.50;99.90;;;;;;5064117;28;20455;-76